createdAt,value
2018-04-18T00:00:12.009Z,14.92
2018-04-18T00:01:12.028Z,14.99
2018-04-18T00:02:12.045Z,14.83
2018-04-18T00:03:12.061Z,14.94
2018-04-18T00:04:12.077Z,14.95
2018-04-18T00:05:12.092Z,14.99
2018-04-18T00:06:12.109Z,14.94
2018-04-18T00:07:12.123Z,14.95
2018-04-18T00:08:12.150Z,14.91
2018-04-18T00:09:12.167Z,14.96
2018-04-18T00:10:12.179Z,14.86
2018-04-18T00:12:12.225Z,14.86
2018-04-18T00:13:12.261Z,14.86
2018-04-18T00:14:12.241Z,14.80
2018-04-18T00:15:12.258Z,14.77
2018-04-18T00:16:12.275Z,14.70
2018-04-18T00:17:12.290Z,14.75
2018-04-18T00:18:12.307Z,14.70
2018-04-18T00:19:12.323Z,14.73
2018-04-18T00:20:12.337Z,14.73
2018-04-18T00:21:12.470Z,14.65
2018-04-18T00:22:12.381Z,14.69
2018-04-18T00:23:12.475Z,14.64
2018-04-18T00:24:12.407Z,14.62
2018-04-18T00:25:12.425Z,14.69
2018-04-18T00:26:12.436Z,14.60
2018-04-18T00:27:12.454Z,14.60
2018-04-18T00:28:12.470Z,14.60
2018-04-18T00:29:12.487Z,14.61
2018-04-18T00:30:12.504Z,14.64
2018-04-18T00:31:12.519Z,14.60
2018-04-18T00:32:12.534Z,14.60
2018-04-18T00:33:12.554Z,14.64
2018-04-18T00:34:12.570Z,14.64
2018-04-18T00:35:12.586Z,14.62
2018-04-18T00:36:12.602Z,14.62
2018-04-18T00:37:12.622Z,14.64
2018-04-18T00:38:12.634Z,14.61
2018-04-18T00:39:12.651Z,14.75
2018-04-18T00:40:12.667Z,14.73
2018-04-18T00:41:12.684Z,14.62
2018-04-18T00:42:12.700Z,14.62
2018-04-18T00:43:12.716Z,14.52
2018-04-18T00:44:12.731Z,14.62
2018-04-18T00:45:12.749Z,14.61
2018-04-18T00:46:12.767Z,14.64
2018-04-18T00:47:12.782Z,14.58
2018-04-18T00:48:12.801Z,14.62
2018-04-18T00:49:12.816Z,14.62
2018-04-18T00:50:12.832Z,14.51
2018-04-18T00:51:12.848Z,14.50
2018-04-18T00:52:12.865Z,14.50
2018-04-18T00:53:12.878Z,14.51
2018-04-18T00:54:12.890Z,14.58
2018-04-18T00:55:13.013Z,14.61
2018-04-18T00:56:12.982Z,14.55
2018-04-18T00:57:12.940Z,14.55
2018-04-18T00:58:12.959Z,14.52
2018-04-18T00:59:12.973Z,14.57
2018-04-18T01:00:12.990Z,14.57
2018-04-18T01:01:13.006Z,14.60
2018-04-18T01:02:13.022Z,14.51
2018-04-18T01:03:13.038Z,14.57
2018-04-18T01:04:13.055Z,14.55
2018-04-18T01:05:13.071Z,14.54
2018-04-18T01:06:13.089Z,14.45
2018-04-18T01:07:13.103Z,14.39
2018-04-18T01:08:13.119Z,14.36
2018-04-18T01:09:13.135Z,14.22
2018-04-18T01:10:13.155Z,14.29
2018-04-18T01:11:13.173Z,14.15
2018-04-18T01:12:13.184Z,14.12
2018-04-18T01:13:13.203Z,14.12
2018-04-18T01:14:13.219Z,14.14
2018-04-18T01:15:13.235Z,14.09
2018-04-18T01:16:13.252Z,14.15
2018-04-18T01:17:13.266Z,14.07
2018-04-18T01:18:13.294Z,14.02
2018-04-18T01:19:13.325Z,14.03
2018-04-18T01:20:13.315Z,14.00
2018-04-18T01:21:13.333Z,14.04
2018-04-18T01:22:13.350Z,14.04
2018-04-18T01:23:13.376Z,14.04
2018-04-18T01:24:13.383Z,14.02
2018-04-18T01:25:13.399Z,14.00
2018-04-18T01:26:13.414Z,13.99
2018-04-18T01:27:13.462Z,13.96
2018-04-18T01:28:13.458Z,14.02
2018-04-18T01:29:13.462Z,13.97
2018-04-18T01:30:13.521Z,13.95
2018-04-18T01:31:13.495Z,13.96
2018-04-18T01:32:13.511Z,13.89
2018-04-18T01:33:13.528Z,13.95
2018-04-18T01:34:13.548Z,13.92
2018-04-18T01:35:13.560Z,13.97
2018-04-18T01:36:13.577Z,14.00
2018-04-18T01:37:13.602Z,13.96
2018-04-18T01:38:13.608Z,14.03
2018-04-18T01:39:13.625Z,13.91
2018-04-18T01:40:13.651Z,13.89
2018-04-18T01:41:13.663Z,13.95
2018-04-18T01:42:13.676Z,13.89
2018-04-18T01:43:13.689Z,13.89
2018-04-18T01:44:13.708Z,13.87
2018-04-18T01:45:13.722Z,13.85
2018-04-18T01:46:13.739Z,13.77
2018-04-18T01:47:13.756Z,13.78
2018-04-18T01:48:13.774Z,13.69
2018-04-18T01:49:13.788Z,13.75
2018-04-18T01:50:13.805Z,13.79
2018-04-18T01:51:13.822Z,13.75
2018-04-18T01:52:13.840Z,13.75
2018-04-18T01:53:13.856Z,13.70
2018-04-18T01:54:13.868Z,13.71
2018-04-18T01:55:13.891Z,13.70
2018-04-18T01:56:13.900Z,13.71
2018-04-18T01:57:13.918Z,13.71
2018-04-18T01:58:13.936Z,13.69
2018-04-18T01:59:13.956Z,13.71
2018-04-18T02:00:13.970Z,13.69
2018-04-18T02:01:14.007Z,13.67
2018-04-18T02:02:14.003Z,13.70
2018-04-18T02:03:14.014Z,13.62
2018-04-18T02:04:14.031Z,13.63
2018-04-18T02:05:14.046Z,13.64
2018-04-18T02:06:14.068Z,13.62
2018-04-18T02:07:14.079Z,13.66
2018-04-18T02:08:14.097Z,13.73
2018-04-18T02:09:14.111Z,13.70
2018-04-18T02:10:14.131Z,13.63
2018-04-18T02:11:14.142Z,13.62
2018-04-18T02:12:14.163Z,13.73
2018-04-18T02:13:14.175Z,13.69
2018-04-18T02:14:14.192Z,13.75
2018-04-18T02:15:14.207Z,13.62
2018-04-18T02:16:14.223Z,13.71
2018-04-18T02:17:14.239Z,13.71
2018-04-18T02:18:14.256Z,13.73
2018-04-18T02:19:14.271Z,13.60
2018-04-18T02:20:14.287Z,13.69
2018-04-18T02:21:14.306Z,13.63
2018-04-18T02:22:14.336Z,13.67
2018-04-18T02:23:14.350Z,13.55
2018-04-18T02:24:14.352Z,13.46
2018-04-18T02:25:14.368Z,13.51
2018-04-18T02:26:14.385Z,13.55
2018-04-18T02:27:14.400Z,13.46
2018-04-18T02:28:14.415Z,13.49
2018-04-18T02:29:14.433Z,13.51
2018-04-18T02:30:14.448Z,13.51
2018-04-18T02:31:14.468Z,13.48
2018-04-18T02:32:14.479Z,13.42
2018-04-18T02:33:14.498Z,13.44
2018-04-18T02:34:14.527Z,13.44
2018-04-18T02:35:14.529Z,13.44
2018-04-18T02:36:14.551Z,13.44
2018-04-18T02:37:14.562Z,13.38
2018-04-18T02:38:14.578Z,13.45
2018-04-18T02:39:14.593Z,13.41
2018-04-18T02:40:14.608Z,13.42
2018-04-18T02:41:14.626Z,13.44
2018-04-18T02:42:14.641Z,13.44
2018-04-18T02:43:14.656Z,13.45
2018-04-18T02:44:14.671Z,13.39
2018-04-18T02:45:14.690Z,13.36
2018-04-18T02:46:14.705Z,13.28
2018-04-18T02:47:14.726Z,13.23
2018-04-18T02:48:14.736Z,13.15
2018-04-18T02:49:14.755Z,13.20
2018-04-18T02:50:14.768Z,13.30
2018-04-18T02:51:14.784Z,13.44
2018-04-18T02:52:14.799Z,13.44
2018-04-18T02:53:14.815Z,13.44
2018-04-18T02:54:14.831Z,13.38
2018-04-18T02:55:14.855Z,13.42
2018-04-18T02:56:14.863Z,13.49
2018-04-18T02:57:14.879Z,13.39
2018-04-18T02:58:14.905Z,13.33
2018-04-18T02:59:14.911Z,13.29
2018-04-18T03:00:14.928Z,13.29
2018-04-18T03:01:14.945Z,13.25
2018-04-18T03:02:14.960Z,13.29
2018-04-18T03:03:14.978Z,13.10
2018-04-18T03:04:15.017Z,13.07
2018-04-18T03:05:15.010Z,13.07
2018-04-18T03:06:15.089Z,12.97
2018-04-18T03:07:15.045Z,13.00
2018-04-18T03:08:15.069Z,13.08
2018-04-18T03:09:15.070Z,12.97
2018-04-18T03:10:15.087Z,13.10
2018-04-18T03:11:15.106Z,13.04
2018-04-18T03:12:15.117Z,13.05
2018-04-18T03:13:15.136Z,13.03
2018-04-18T03:14:15.155Z,13.11
2018-04-18T03:15:15.167Z,12.93
2018-04-18T03:16:15.182Z,12.92
2018-04-18T03:17:15.217Z,12.87
2018-04-18T03:18:15.214Z,12.86
2018-04-18T03:19:15.236Z,12.90
2018-04-18T03:20:15.247Z,12.83
2018-04-18T03:21:15.262Z,12.78
2018-04-18T03:22:15.278Z,12.85
2018-04-18T03:23:15.299Z,12.78
2018-04-18T03:24:15.311Z,12.77
2018-04-18T03:25:15.326Z,12.78
2018-04-18T03:26:15.342Z,12.82
2018-04-18T03:27:15.359Z,12.85
2018-04-18T03:28:15.374Z,12.78
2018-04-18T03:29:15.393Z,12.78
2018-04-18T03:30:15.435Z,12.77
2018-04-18T03:31:15.422Z,12.82
2018-04-18T03:32:15.438Z,12.79
2018-04-18T03:33:15.458Z,12.79
2018-04-18T03:34:15.472Z,12.82
2018-04-18T03:35:15.485Z,12.78
2018-04-18T03:36:15.502Z,12.89
2018-04-18T03:37:15.552Z,12.87
2018-04-18T03:38:15.636Z,12.86
2018-04-18T03:39:15.551Z,12.86
2018-04-18T03:40:15.566Z,12.93
2018-04-18T03:41:15.583Z,12.95
2018-04-18T03:42:15.597Z,13.01
2018-04-18T03:43:15.615Z,12.93
2018-04-18T03:44:15.633Z,13.03
2018-04-18T03:45:15.645Z,12.97
2018-04-18T03:46:15.662Z,12.96
2018-04-18T03:47:15.676Z,12.95
2018-04-18T03:48:15.693Z,13.01
2018-04-18T03:49:15.709Z,13.08
2018-04-18T03:50:15.734Z,12.92
2018-04-18T03:51:15.739Z,12.93
2018-04-18T03:52:15.756Z,12.90
2018-04-18T03:53:15.771Z,12.89
2018-04-18T03:54:15.794Z,12.86
2018-04-18T03:55:15.804Z,12.77
2018-04-18T03:56:15.825Z,12.83
2018-04-18T03:57:15.843Z,12.82
2018-04-18T03:58:15.864Z,12.74
2018-04-18T03:59:15.869Z,12.83
2018-04-18T04:00:15.889Z,12.77
2018-04-18T04:01:15.901Z,12.71
2018-04-18T04:02:15.959Z,12.72
2018-04-18T04:03:15.948Z,12.68
2018-04-18T04:04:15.951Z,12.70
2018-04-18T04:05:15.961Z,12.71
2018-04-18T04:06:15.985Z,12.71
2018-04-18T04:07:15.994Z,12.56
2018-04-18T04:08:16.009Z,12.54
2018-04-18T04:09:16.029Z,12.62
2018-04-18T04:10:16.047Z,12.65
2018-04-18T04:11:16.058Z,12.65
2018-04-18T04:12:16.071Z,12.56
2018-04-18T04:13:16.088Z,12.64
2018-04-18T04:14:16.113Z,12.56
2018-04-18T04:15:16.120Z,12.60
2018-04-18T04:16:16.135Z,12.52
2018-04-18T04:17:16.151Z,12.60
2018-04-18T04:18:16.166Z,12.59
2018-04-18T04:19:16.182Z,12.60
2018-04-18T04:20:16.903Z,12.50
2018-04-18T04:21:16.226Z,12.50
2018-04-18T04:22:16.231Z,12.50
2018-04-18T04:23:16.253Z,12.39
2018-04-18T04:24:16.259Z,12.39
2018-04-18T04:25:16.277Z,12.27
2018-04-18T04:26:16.297Z,12.32
2018-04-18T04:27:16.309Z,12.19
2018-04-18T04:28:16.323Z,12.24
2018-04-18T04:29:16.339Z,12.24
2018-04-18T04:30:16.373Z,12.21
2018-04-18T04:31:16.371Z,12.28
2018-04-18T04:32:16.392Z,12.21
2018-04-18T04:33:16.407Z,12.32
2018-04-18T04:34:16.419Z,12.35
2018-04-18T04:35:16.433Z,12.34
2018-04-18T04:36:16.456Z,12.34
2018-04-18T04:37:16.473Z,12.34
2018-04-18T04:38:16.482Z,12.32
2018-04-18T04:39:16.656Z,12.34
2018-04-18T04:40:16.696Z,12.41
2018-04-18T04:41:16.529Z,12.41
2018-04-18T04:42:16.687Z,12.31
2018-04-18T04:43:16.558Z,12.32
2018-04-18T04:44:16.603Z,12.17
2018-04-18T04:45:16.592Z,12.19
2018-04-18T04:46:16.606Z,12.24
2018-04-18T04:47:16.624Z,12.39
2018-04-18T04:48:16.645Z,12.35
2018-04-18T04:49:16.655Z,12.32
2018-04-18T04:50:16.672Z,12.39
2018-04-18T04:51:16.690Z,12.34
2018-04-18T04:52:16.702Z,12.31
2018-04-18T04:53:16.741Z,12.21
2018-04-18T04:54:16.733Z,12.29
2018-04-18T04:55:16.750Z,12.21
2018-04-18T04:56:16.768Z,12.20
2018-04-18T04:57:16.784Z,12.17
2018-04-18T04:58:16.804Z,12.24
2018-04-18T04:59:16.814Z,12.29
2018-04-18T05:00:16.829Z,12.32
2018-04-18T05:01:16.845Z,12.35
2018-04-18T05:02:16.863Z,12.24
2018-04-18T05:03:16.881Z,12.35
2018-04-18T05:04:18.586Z,12.37
2018-04-18T05:05:17.230Z,12.35
2018-04-18T05:06:17.558Z,12.37
2018-04-18T05:07:18.875Z,12.41
2018-04-18T05:08:17.134Z,12.49
2018-04-18T05:09:17.095Z,12.50
2018-04-18T05:10:17.432Z,12.50
2018-04-18T05:11:17.870Z,12.52
2018-04-18T05:12:18.156Z,12.52
2018-04-18T05:13:17.038Z,12.46
2018-04-18T05:14:17.054Z,12.35
2018-04-18T05:15:17.065Z,12.52
2018-04-18T05:16:17.077Z,12.49
2018-04-18T05:17:17.096Z,12.47
2018-04-18T05:18:17.113Z,12.49
2018-04-18T05:19:17.128Z,12.42
2018-04-18T05:20:17.142Z,12.45
2018-04-18T05:21:17.165Z,12.34
2018-04-18T05:22:17.178Z,12.38
2018-04-18T05:23:17.191Z,12.38
2018-04-18T05:24:17.209Z,12.37
2018-04-18T05:25:17.250Z,12.37
2018-04-18T05:26:19.302Z,12.35
2018-04-18T05:27:17.253Z,12.38
2018-04-18T05:28:17.268Z,12.41
2018-04-18T05:29:17.282Z,12.45
2018-04-18T05:30:17.306Z,12.49
2018-04-18T05:31:17.314Z,12.50
2018-04-18T05:32:17.382Z,12.50
2018-04-18T05:33:17.346Z,12.62
2018-04-18T05:34:17.379Z,12.59
2018-04-18T05:35:17.392Z,12.62
2018-04-18T05:36:17.392Z,12.57
2018-04-18T05:37:17.415Z,12.65
2018-04-18T05:38:17.426Z,12.59
2018-04-18T05:39:17.440Z,12.53
2018-04-18T05:40:17.458Z,12.49
2018-04-18T05:41:17.480Z,12.50
2018-04-18T05:42:17.492Z,12.47
2018-04-18T05:43:17.626Z,12.50
2018-04-18T05:44:17.518Z,12.50
2018-04-18T05:45:17.535Z,12.49
2018-04-18T05:46:17.555Z,12.53
2018-04-18T05:47:17.567Z,12.53
2018-04-18T05:48:17.581Z,12.60
2018-04-18T05:49:17.598Z,12.65
2018-04-18T05:50:17.623Z,12.67
2018-04-18T05:51:17.642Z,12.70
2018-04-18T05:52:17.645Z,12.78
2018-04-18T05:53:17.675Z,12.72
2018-04-18T05:54:17.679Z,12.78
2018-04-18T05:55:17.697Z,12.77
2018-04-18T05:56:17.712Z,12.85
2018-04-18T05:57:17.726Z,12.77
2018-04-18T05:58:17.742Z,12.86
2018-04-18T05:59:17.765Z,12.93
2018-04-18T06:00:17.772Z,13.01
2018-04-18T06:01:17.789Z,13.00
2018-04-18T06:02:17.803Z,13.08
2018-04-18T06:03:17.819Z,13.03
2018-04-18T06:04:17.835Z,13.03
2018-04-18T06:05:17.858Z,13.08
2018-04-18T06:06:17.918Z,13.15
2018-04-18T06:07:17.884Z,13.30
2018-04-18T06:08:17.900Z,13.38
2018-04-18T06:09:17.918Z,13.44
2018-04-18T06:10:17.934Z,13.52
2018-04-18T06:11:17.980Z,13.52
2018-04-18T06:12:17.962Z,13.42
2018-04-18T06:13:17.981Z,13.39
2018-04-18T06:14:17.994Z,13.48
2018-04-18T06:15:18.128Z,13.49
2018-04-18T06:16:18.986Z,13.49
2018-04-18T06:17:18.260Z,13.51
2018-04-18T06:18:18.059Z,13.59
2018-04-18T06:19:18.076Z,13.62
2018-04-18T06:20:18.115Z,13.57
2018-04-18T06:21:18.235Z,13.71
2018-04-18T06:22:18.125Z,13.69
2018-04-18T06:23:18.137Z,13.78
2018-04-18T06:24:18.157Z,13.78
2018-04-18T06:25:18.169Z,13.85
2018-04-18T06:26:18.197Z,13.91
2018-04-18T06:27:18.207Z,13.91
2018-04-18T06:28:18.216Z,13.97
2018-04-18T06:29:18.235Z,13.99
2018-04-18T06:30:18.250Z,14.04
2018-04-18T06:31:18.303Z,14.07
2018-04-18T06:32:18.285Z,14.18
2018-04-18T06:33:18.300Z,14.27
2018-04-18T06:34:18.316Z,14.27
2018-04-18T06:35:18.330Z,14.36
2018-04-18T06:36:18.600Z,14.42
2018-04-18T06:37:18.363Z,14.45
2018-04-18T06:38:18.380Z,14.54
2018-04-18T06:39:18.400Z,14.51
2018-04-18T06:40:18.413Z,14.58
2018-04-18T06:41:18.437Z,14.69
2018-04-18T06:42:18.444Z,14.77
2018-04-18T06:43:18.472Z,14.68
2018-04-18T06:44:18.480Z,14.72
2018-04-18T06:45:18.573Z,14.89
2018-04-18T06:46:18.502Z,14.86
2018-04-18T06:47:18.527Z,14.92
2018-04-18T06:48:19.250Z,15.02
2018-04-18T06:49:18.558Z,15.02
2018-04-18T06:50:18.573Z,15.06
2018-04-18T06:51:18.588Z,15.06
2018-04-18T06:52:18.603Z,15.11
2018-04-18T06:53:18.617Z,15.17
2018-04-18T06:54:18.632Z,15.19
2018-04-18T06:55:18.649Z,15.25
2018-04-18T06:56:18.673Z,15.34
2018-04-18T06:57:18.686Z,15.31
2018-04-18T06:58:18.702Z,15.43
2018-04-18T06:59:18.715Z,15.49
2018-04-18T07:00:18.745Z,15.54
2018-04-18T07:01:18.753Z,15.65
2018-04-18T07:02:18.765Z,15.68
2018-04-18T07:03:19.106Z,15.65
2018-04-18T07:04:18.800Z,15.74
2018-04-18T07:05:18.815Z,15.74
2018-04-18T07:06:18.830Z,15.84
2018-04-18T07:07:18.850Z,15.86
2018-04-18T07:08:18.864Z,15.82
2018-04-18T07:09:18.882Z,15.83
2018-04-18T07:10:18.909Z,15.92
2018-04-18T07:11:18.923Z,15.96
2018-04-18T07:12:18.937Z,16.07
2018-04-18T07:13:18.952Z,16.02
2018-04-18T07:14:19.382Z,16.08
2018-04-18T07:15:18.981Z,16.07
2018-04-18T07:16:19.002Z,16.12
2018-04-18T07:17:19.017Z,16.24
2018-04-18T07:18:19.229Z,16.20
2018-04-18T07:19:19.056Z,16.34
2018-04-18T07:20:19.223Z,16.45
2018-04-18T07:21:19.129Z,16.42
2018-04-18T07:22:19.206Z,16.48
2018-04-18T07:23:19.140Z,16.49
2018-04-18T07:24:19.139Z,16.57
2018-04-18T07:25:19.156Z,16.60
2018-04-18T07:26:19.183Z,16.60
2018-04-18T07:27:19.183Z,16.66
2018-04-18T07:28:19.211Z,16.78
2018-04-18T07:29:19.231Z,16.89
2018-04-18T07:30:19.257Z,16.91
2018-04-18T07:31:19.263Z,16.78
2018-04-18T07:32:19.268Z,16.96
2018-04-18T07:33:19.282Z,16.97
2018-04-18T07:34:19.339Z,16.94
2018-04-18T07:35:19.317Z,16.96
2018-04-18T07:36:19.336Z,16.98
2018-04-18T07:37:19.352Z,17.04
2018-04-18T07:38:19.381Z,17.07
2018-04-18T07:39:19.424Z,17.15
2018-04-18T07:40:19.409Z,17.18
2018-04-18T07:41:19.543Z,17.26
2018-04-18T07:42:19.438Z,17.36
2018-04-18T07:43:19.453Z,17.36
2018-04-18T07:44:19.470Z,17.48
2018-04-18T07:45:19.486Z,17.44
2018-04-18T07:46:19.544Z,17.48
2018-04-18T07:47:19.521Z,17.52
2018-04-18T07:48:19.539Z,17.62
2018-04-18T07:49:19.556Z,17.70
2018-04-18T07:50:19.581Z,17.72
2018-04-18T07:51:19.606Z,17.77
2018-04-18T07:52:19.662Z,17.74
2018-04-18T07:53:19.625Z,17.77
2018-04-18T07:54:19.642Z,17.99
2018-04-18T07:55:19.673Z,17.81
2018-04-18T07:56:20.712Z,17.99
2018-04-18T07:57:20.559Z,17.90
2018-04-18T07:58:19.847Z,18.03
2018-04-18T07:59:20.150Z,18.11
2018-04-18T08:00:19.746Z,18.10
2018-04-18T08:01:20.335Z,18.17
2018-04-18T08:02:19.781Z,18.26
2018-04-18T08:03:19.868Z,18.25
2018-04-18T08:04:19.813Z,18.21
2018-04-18T08:05:19.835Z,18.27
2018-04-18T08:06:19.938Z,18.26
2018-04-18T08:07:19.880Z,18.27
2018-04-18T08:08:19.886Z,18.48
2018-04-18T08:09:19.904Z,18.47
2018-04-18T08:10:19.917Z,18.41
2018-04-18T08:11:19.955Z,18.48
2018-04-18T08:12:19.954Z,18.52
2018-04-18T08:13:19.987Z,18.62
2018-04-18T08:14:20.041Z,18.57
2018-04-18T08:15:20.202Z,18.60
2018-04-18T08:16:20.034Z,18.69
2018-04-18T08:17:20.127Z,18.66
2018-04-18T08:18:20.207Z,18.70
2018-04-18T08:19:20.112Z,18.87
2018-04-18T08:20:20.275Z,18.94
2018-04-18T08:21:20.353Z,18.95
2018-04-18T08:22:20.128Z,18.87
2018-04-18T08:23:20.151Z,19.00
2018-04-18T08:24:20.163Z,19.02
2018-04-18T08:25:20.182Z,19.16
2018-04-18T08:26:20.222Z,19.23
2018-04-18T08:27:20.242Z,19.18
2018-04-18T08:28:20.233Z,19.31
2018-04-18T08:29:20.269Z,19.31
2018-04-18T08:30:20.275Z,19.32
2018-04-18T08:31:20.297Z,19.32
2018-04-18T08:32:20.308Z,19.28
2018-04-18T08:33:20.322Z,19.26
2018-04-18T08:34:20.340Z,19.40
2018-04-18T08:35:20.360Z,19.32
2018-04-18T08:36:20.374Z,19.46
2018-04-18T08:37:20.393Z,19.47
2018-04-18T08:38:20.461Z,19.55
2018-04-18T08:39:20.429Z,19.59
2018-04-18T08:40:20.453Z,19.54
2018-04-18T08:41:20.464Z,19.61
2018-04-18T08:42:20.506Z,19.61
2018-04-18T08:43:20.499Z,19.69
2018-04-18T08:44:20.876Z,19.77
2018-04-18T08:45:21.966Z,19.83
2018-04-18T08:46:20.553Z,19.80
2018-04-18T08:47:20.568Z,19.91
2018-04-18T08:48:20.586Z,19.87
2018-04-18T08:49:20.607Z,19.87
2018-04-18T08:50:20.853Z,19.94
2018-04-18T08:51:20.640Z,19.96
2018-04-18T08:52:20.659Z,19.96
2018-04-18T08:53:20.904Z,19.98
2018-04-18T08:54:20.897Z,19.99
2018-04-18T08:55:20.910Z,20.01
2018-04-18T08:56:20.731Z,20.13
2018-04-18T08:57:20.753Z,20.16
2018-04-18T08:58:20.766Z,20.11
2018-04-18T08:59:20.809Z,20.13
2018-04-18T09:00:20.816Z,20.13
2018-04-18T09:01:20.831Z,20.17
2018-04-18T09:02:20.838Z,20.20
2018-04-18T09:03:20.867Z,20.29
2018-04-18T09:04:21.070Z,20.23
2018-04-18T09:05:20.909Z,20.31
2018-04-18T09:06:20.913Z,20.24
2018-04-18T09:07:20.959Z,20.32
2018-04-18T09:08:20.946Z,20.28
2018-04-18T09:09:20.982Z,20.32
2018-04-18T09:10:20.995Z,20.41
2018-04-18T09:11:21.063Z,20.52
2018-04-18T09:12:21.018Z,20.41
2018-04-18T09:13:21.128Z,20.55
2018-04-18T09:14:21.107Z,20.61
2018-04-18T09:15:21.076Z,20.61
2018-04-18T09:16:21.095Z,20.69
2018-04-18T09:17:21.184Z,20.74
2018-04-18T09:18:21.145Z,20.66
2018-04-18T09:19:21.146Z,20.73
2018-04-18T09:20:21.309Z,20.72
2018-04-18T09:21:21.186Z,20.74
2018-04-18T09:22:21.406Z,20.85
2018-04-18T09:23:21.224Z,20.79
2018-04-18T09:24:21.241Z,20.85
2018-04-18T09:25:21.323Z,20.88
2018-04-18T09:26:21.285Z,20.88
2018-04-18T09:27:21.303Z,20.82
2018-04-18T09:28:21.524Z,20.74
2018-04-18T09:29:21.328Z,20.82
2018-04-18T09:30:21.358Z,20.92
2018-04-18T09:31:21.370Z,20.92
2018-04-18T09:32:21.406Z,20.94
2018-04-18T09:33:21.407Z,20.95
2018-04-18T09:34:21.426Z,20.99
2018-04-18T09:35:21.441Z,21.03
2018-04-18T09:36:21.510Z,21.03
2018-04-18T09:37:21.478Z,21.01
2018-04-18T09:38:21.496Z,21.21
2018-04-18T09:39:21.531Z,21.28
2018-04-18T09:40:21.534Z,21.27
2018-04-18T09:41:21.563Z,21.35
2018-04-18T09:42:21.570Z,21.40
2018-04-18T09:43:21.587Z,21.34
2018-04-18T09:44:21.623Z,21.44
2018-04-18T09:45:21.625Z,21.46
2018-04-18T09:46:21.670Z,21.43
2018-04-18T09:47:21.664Z,21.50
2018-04-18T09:48:21.692Z,21.40
2018-04-18T09:49:21.705Z,21.43
2018-04-18T09:50:21.729Z,21.49
2018-04-18T09:51:22.531Z,21.52
2018-04-18T09:52:21.765Z,21.42
2018-04-18T09:53:21.777Z,21.37
2018-04-18T09:54:21.940Z,21.44
2018-04-18T09:55:21.820Z,21.50
2018-04-18T09:56:21.862Z,21.44
2018-04-18T09:57:21.875Z,21.46
2018-04-18T09:58:21.934Z,21.52
2018-04-18T09:59:21.891Z,21.58
2018-04-18T10:00:21.922Z,21.69
2018-04-18T10:01:21.926Z,21.69
2018-04-18T10:02:21.943Z,21.75
2018-04-18T10:03:21.965Z,21.75
2018-04-18T10:04:21.999Z,21.82
2018-04-18T10:05:22.013Z,21.82
2018-04-18T10:06:22.029Z,21.79
2018-04-18T10:07:22.101Z,21.84
2018-04-18T10:08:22.062Z,21.86
2018-04-18T10:09:22.083Z,21.98
2018-04-18T10:10:22.185Z,22.06
2018-04-18T10:11:22.111Z,22.09
2018-04-18T10:12:22.137Z,22.15
2018-04-18T10:13:22.160Z,22.07
2018-04-18T10:14:22.233Z,22.03
2018-04-18T10:15:22.187Z,21.94
2018-04-18T10:16:22.675Z,22.05
2018-04-18T10:17:22.237Z,22.03
2018-04-18T10:18:22.244Z,22.09
2018-04-18T10:19:22.263Z,22.21
2018-04-18T10:20:22.280Z,22.35
2018-04-18T10:21:22.300Z,22.37
2018-04-18T10:22:22.322Z,22.49
2018-04-18T10:23:22.355Z,22.42
2018-04-18T10:24:22.359Z,22.51
2018-04-18T10:25:22.378Z,22.52
2018-04-18T10:26:22.394Z,22.52
2018-04-18T10:27:22.412Z,22.57
2018-04-18T10:28:22.430Z,22.58
2018-04-18T10:29:22.456Z,22.62
2018-04-18T10:30:22.468Z,22.76
2018-04-18T10:31:22.488Z,22.83
2018-04-18T10:32:22.508Z,22.70
2018-04-18T10:33:22.545Z,22.72
2018-04-18T10:34:22.545Z,22.83
2018-04-18T10:35:22.565Z,22.73
2018-04-18T10:36:22.583Z,22.75
2018-04-18T10:37:22.670Z,22.70
2018-04-18T10:38:22.641Z,22.73
2018-04-18T10:39:22.708Z,22.75
2018-04-18T10:40:22.745Z,22.72
2018-04-18T10:41:22.737Z,22.88
2018-04-18T10:42:22.825Z,22.90
2018-04-18T10:43:22.838Z,22.91
2018-04-18T10:44:22.962Z,22.94
2018-04-18T10:45:22.760Z,22.73
2018-04-18T10:46:22.778Z,22.83
2018-04-18T10:47:22.807Z,23.05
2018-04-18T10:48:22.896Z,22.97
2018-04-18T10:49:22.853Z,23.07
2018-04-18T10:50:22.856Z,23.02
2018-04-18T10:51:22.873Z,23.01
2018-04-18T10:52:22.921Z,22.91
2018-04-18T10:53:22.912Z,22.95
2018-04-18T10:54:23.072Z,23.02
2018-04-18T10:55:22.951Z,23.23
2018-04-18T10:56:22.969Z,23.17
2018-04-18T10:57:23.000Z,23.25
2018-04-18T10:58:23.011Z,23.16
2018-04-18T10:59:23.033Z,23.00
2018-04-18T11:00:23.049Z,23.07
2018-04-18T11:01:23.066Z,23.19
2018-04-18T11:02:23.086Z,23.17
2018-04-18T11:03:23.108Z,23.15
2018-04-18T11:04:23.133Z,23.22
2018-04-18T11:05:23.148Z,23.28
2018-04-18T11:06:23.179Z,23.39
2018-04-18T11:07:23.184Z,23.43
2018-04-18T11:08:23.204Z,23.53
2018-04-18T11:09:23.228Z,23.66
2018-04-18T11:10:23.245Z,23.63
2018-04-18T11:11:23.267Z,23.63
2018-04-18T11:12:23.283Z,23.60
2018-04-18T11:13:23.312Z,23.58
2018-04-18T11:14:23.325Z,23.53
2018-04-18T11:15:23.344Z,23.46
2018-04-18T11:16:23.372Z,23.47
2018-04-18T11:17:23.387Z,23.39
2018-04-18T11:18:23.401Z,23.33
2018-04-18T11:19:23.419Z,23.46
2018-04-18T11:20:23.445Z,23.50
2018-04-18T11:21:23.461Z,23.57
2018-04-18T11:22:23.479Z,23.53
2018-04-18T11:23:23.778Z,23.63
2018-04-18T11:24:23.541Z,23.72
2018-04-18T11:25:23.555Z,23.78
2018-04-18T11:26:23.560Z,23.83
2018-04-18T11:27:23.579Z,23.83
2018-04-18T11:28:24.144Z,23.88
2018-04-18T11:29:23.620Z,23.87
2018-04-18T11:30:23.640Z,24.00
2018-04-18T11:31:23.660Z,23.95
2018-04-18T11:32:23.678Z,24.13
2018-04-18T11:33:23.699Z,24.10
2018-04-18T11:34:23.758Z,24.03
2018-04-18T11:35:23.742Z,24.09
2018-04-18T11:36:23.758Z,24.15
2018-04-18T11:37:23.777Z,24.21
2018-04-18T11:38:23.801Z,24.25
2018-04-18T11:39:23.834Z,24.21
2018-04-18T11:40:23.847Z,24.24
2018-04-18T11:41:23.859Z,24.12
2018-04-18T11:42:23.924Z,24.13
2018-04-18T11:43:23.906Z,23.98
2018-04-18T11:44:23.920Z,23.95
2018-04-18T11:45:23.941Z,23.95
2018-04-18T11:46:23.961Z,23.93
2018-04-18T11:47:23.980Z,23.95
2018-04-18T11:48:24.148Z,24.00
2018-04-18T11:49:24.019Z,24.25
2018-04-18T11:50:24.040Z,24.27
2018-04-18T11:51:24.081Z,24.28
2018-04-18T11:52:24.082Z,24.30
2018-04-18T11:53:24.106Z,24.39
2018-04-18T11:54:24.120Z,24.25
2018-04-18T11:55:24.174Z,24.24
2018-04-18T11:57:24.364Z,24.45
2018-04-18T11:58:24.204Z,24.58
2018-04-18T11:59:24.222Z,24.53
2018-04-18T12:00:24.240Z,24.64
2018-04-18T12:01:24.267Z,24.62
2018-04-18T12:02:24.282Z,24.65
2018-04-18T12:03:24.308Z,24.62
2018-04-18T12:05:24.343Z,24.67
2018-04-18T12:06:24.368Z,24.68
2018-04-18T12:07:24.387Z,24.64
2018-04-18T12:08:24.409Z,24.68
2018-04-18T12:09:24.547Z,24.55
2018-04-18T12:10:24.498Z,24.57
2018-04-18T12:11:24.470Z,24.67
2018-04-18T12:12:24.497Z,24.68
2018-04-18T12:13:24.540Z,24.65
2018-04-18T12:14:24.530Z,24.83
2018-04-18T12:15:24.562Z,24.69
2018-04-18T12:16:24.575Z,24.71
2018-04-18T12:17:24.591Z,24.67
2018-04-18T12:18:24.625Z,24.68
2018-04-18T12:19:24.662Z,24.65
2018-04-18T12:20:24.656Z,24.69
2018-04-18T12:21:28.424Z,24.80
2018-04-18T12:22:24.694Z,24.78
2018-04-18T12:23:24.716Z,24.85
2018-04-18T12:24:26.400Z,24.85
2018-04-18T12:25:24.763Z,24.99
2018-04-18T12:26:24.783Z,25.08
2018-04-18T12:27:24.799Z,25.17
2018-04-18T12:28:24.822Z,25.32
2018-04-18T12:29:24.885Z,25.30
2018-04-18T12:30:24.879Z,25.54
2018-04-18T12:31:24.887Z,25.50
2018-04-18T12:32:24.904Z,25.39
2018-04-18T12:33:24.940Z,25.39
2018-04-18T12:34:25.052Z,25.25
2018-04-18T12:35:24.972Z,25.15
2018-04-18T12:36:24.993Z,25.17
2018-04-18T12:38:25.041Z,25.03
2018-04-18T12:39:25.064Z,25.10
2018-04-18T12:40:25.081Z,25.20
2018-04-18T12:41:25.114Z,25.20
2018-04-18T12:42:25.146Z,25.09
2018-04-18T12:43:25.153Z,25.10
2018-04-18T12:44:25.191Z,25.03
2018-04-18T12:45:25.194Z,25.18
2018-04-18T12:46:25.228Z,25.35
2018-04-18T12:47:25.254Z,25.47
2018-04-18T12:48:25.276Z,25.50
2018-04-18T12:49:25.269Z,25.43
2018-04-18T12:50:25.292Z,25.20
2018-04-18T12:51:25.316Z,25.39
2018-04-18T12:52:25.333Z,25.45
2018-04-18T12:53:25.382Z,25.38
2018-04-18T12:54:25.402Z,25.51
2018-04-18T12:55:25.398Z,25.39
2018-04-18T12:56:25.421Z,25.51